Time;durP1;ratioP1;P1;durP2;ratioP2;P2;SDS_P1;SDS_P2;PMS_P1;PMS_P2;Temp;Humidity;BMP_temperature;BMP_pressure;BME280_temperature;BME280_humidity;BME280_pressure;Samples;Min_cycle;Max_cycle;Signal;HPM_P1;HPM_P2
2024/01/31 00:00:12;;;;;;;;;;;;;;;19.88;42.49;102346.38;2079387;28;6907;-63
2024/01/31 00:01:39;;;;;;;;;;;;;;;19.89;42.53;102353.66;2083623;28;2188;-64
2024/01/31 00:03:07;;;;;;;;;;;;;;;19.88;42.50;102343.50;2084069;28;1648;-63
2024/01/31 00:04:36;;;;;;;;;;;;;;;19.87;42.56;102337.00;2083391;28;2215;-63
2024/01/31 00:06:03;;;;;;;;;;;;;;;19.88;42.55;102343.50;2083251;28;2168;-63
2024/01/31 00:07:30;;;;;;;;;;;;;;;19.87;42.44;102350.63;2083544;28;2401;-63
2024/01/31 00:08:57;;;;;;;;;;;;;;;19.87;42.52;102350.63;2083375;28;2129;-63
2024/01/31 00:10:23;;;;;;;;;;;;;;;19.86;42.39;102349.13;2085016;28;2107;-63
2024/01/31 00:11:50;;;;;;;;;;;;;;;19.85;42.53;102342.59;2082866;28;2214;-64
2024/01/31 00:13:17;;;;;;;;;;;;;;;19.85;42.42;102354.09;2081842;28;2243;-64
2024/01/31 00:14:44;;;;;;;;;;;;;;;19.85;42.52;102354.09;2079598;28;2161;-63
2024/01/31 00:16:14;;;;;;;;;;;;;;;19.86;42.43;102354.88;2083887;28;2166;-63
2024/01/31 00:17:41;;;;;;;;;;;;;;;19.85;42.43;102353.34;2083709;28;1624;-63
2024/01/31 00:19:08;;;;;;;;;;;;;;;19.84;42.51;102346.09;2082912;28;2213;-63
2024/01/31 00:20:35;;;;;;;;;;;;;;;19.85;42.61;102356.22;2083858;28;1632;-63
2024/01/31 00:22:01;;;;;;;;;;;;;;;19.84;42.48;102346.09;2085116;28;2201;-63
2024/01/31 00:23:28;;;;;;;;;;;;;;;19.84;42.48;102343.22;2084357;28;2184;-63
2024/01/31 00:24:55;;;;;;;;;;;;;;;19.83;42.46;102350.34;2084502;28;2175;-63
2024/01/31 00:26:21;;;;;;;;;;;;;;;19.83;42.35;102344.59;2084072;28;1653;-63
2024/01/31 00:27:48;;;;;;;;;;;;;;;19.81;42.36;102344.44;2084560;28;2247;-63
2024/01/31 00:29:15;;;;;;;;;;;;;;;19.82;42.35;102343.09;2081447;28;1796;-63
2024/01/31 00:30:42;;;;;;;;;;;;;;;19.78;42.37;102342.78;2081422;28;6270;-63
2024/01/31 00:32:09;;;;;;;;;;;;;;;19.80;42.23;102340.06;2084989;28;1621;-63
2024/01/31 00:33:35;;;;;;;;;;;;;;;19.79;42.50;102350.03;2084497;28;2218;-63
2024/01/31 00:35:02;;;;;;;;;;;;;;;19.80;42.34;102351.56;2083547;28;1574;-63
2024/01/31 00:36:29;;;;;;;;;;;;;;;19.80;42.25;102348.69;2081355;28;2139;-63
2024/01/31 00:37:56;;;;;;;;;;;;;;;19.80;42.24;102340.06;2084183;28;1611;-63
2024/01/31 00:39:28;;;;;;;;;;;;;;;19.79;42.32;102339.31;2083719;28;2332;-63
2024/01/31 00:40:54;;;;;;;;;;;;;;;19.79;42.27;102345.06;2085405;28;2217;-63
2024/01/31 00:42:21;;;;;;;;;;;;;;;19.79;42.31;102350.03;2084290;28;2361;-63
2024/01/31 00:43:49;;;;;;;;;;;;;;;19.79;42.25;102345.06;2084370;28;2166;-63
2024/01/31 00:45:16;;;;;;;;;;;;;;;19.79;42.20;102345.06;2085118;28;2337;-63
2024/01/31 00:46:44;;;;;;;;;;;;;;;19.79;42.21;102350.03;2084192;28;2207;-63
2024/01/31 00:48:11;;;;;;;;;;;;;;;19.78;42.24;102348.53;2085773;28;1608;-63
2024/01/31 00:49:38;;;;;;;;;;;;;;;19.78;42.16;102337.78;2085229;28;1644;-63
2024/01/31 00:51:10;;;;;;;;;;;;;;;19.78;42.26;102348.53;2085432;28;1688;-63
2024/01/31 00:52:36;;;;;;;;;;;;;;;19.78;42.16;102354.28;2085791;28;2259;-64
2024/01/31 00:54:03;;;;;;;;;;;;;;;19.78;42.25;102351.41;2085002;28;1620;-64
2024/01/31 00:55:30;;;;;;;;;;;;;;;19.78;42.26;102348.53;2084683;28;2119;-63
2024/01/31 00:56:57;;;;;;;;;;;;;;;19.76;42.11;102345.50;2084512;28;1625;-64
2024/01/31 00:58:24;;;;;;;;;;;;;;;19.77;42.22;102349.88;2085150;28;2210;-63
2024/01/31 00:59:51;;;;;;;;;;;;;;;19.77;42.17;102349.88;2086234;28;1712;-63
2024/01/31 01:01:18;;;;;;;;;;;;;;;19.76;42.13;102348.38;2085598;28;6525;-63
2024/01/31 01:02:45;;;;;;;;;;;;;;;19.75;42.12;102339.00;2083522;28;2151;-63
2024/01/31 01:04:12;;;;;;;;;;;;;;;19.76;42.12;102340.50;2084965;28;1589;-63
2024/01/31 01:05:39;;;;;;;;;;;;;;;19.76;42.12;102345.50;2086609;28;1625;-63
2024/01/31 01:07:06;;;;;;;;;;;;;;;19.75;42.10;102341.13;2086173;28;1605;-63
2024/01/31 01:08:33;;;;;;;;;;;;;;;19.75;42.01;102341.13;2080569;28;2128;-63
2024/01/31 01:10:00;;;;;;;;;;;;;;;19.75;42.11;102338.25;2084857;28;2119;-64
2024/01/31 01:11:30;;;;;;;;;;;;;;;19.72;42.07;102340.22;2087322;28;2270;-63
2024/01/31 01:12:59;;;;;;;;;;;;;;;19.72;42.14;102334.47;2083282;28;2190;-64
2024/01/31 01:14:25;;;;;;;;;;;;;;;19.74;42.06;102337.47;2084755;28;2184;-63
2024/01/31 01:15:51;;;;;;;;;;;;;;;19.73;42.18;102341.00;2083457;28;2283;-63
2024/01/31 01:17:18;;;;;;;;;;;;;;;19.73;42.08;102341.75;2086066;28;1554;-63
2024/01/31 01:18:45;;;;;;;;;;;;;;;19.73;42.04;102341.75;2085055;28;1707;-64
2024/01/31 01:20:12;;;;;;;;;;;;;;;19.73;42.14;102335.25;2085672;28;1640;-63
2024/01/31 01:21:39;;;;;;;;;;;;;;;19.72;42.14;102343.09;2084479;28;2103;-64
2024/01/31 01:23:06;;;;;;;;;;;;;;;19.71;42.01;102337.97;2085284;28;2278;-64
2024/01/31 01:24:33;;;;;;;;;;;;;;;19.72;42.10;102339.47;2085409;28;1585;-64
2024/01/31 01:25:59;;;;;;;;;;;;;;;19.72;42.02;102345.22;2085368;28;1629;-64
2024/01/31 01:27:26;;;;;;;;;;;;;;;19.71;42.02;102340.84;2084404;28;1600;-63
2024/01/31 01:28:53;;;;;;;;;;;;;;;19.70;41.78;102345.06;2083125;28;2232;-64
2024/01/31 01:30:21;;;;;;;;;;;;;;;19.71;41.95;102337.97;2084242;28;6415;-63
2024/01/31 01:31:48;;;;;;;;;;;;;;;19.70;41.95;102342.97;2085299;28;1790;-63
2024/01/31 01:33:15;;;;;;;;;;;;;;;19.69;41.98;102343.56;2084722;28;1612;-63
2024/01/31 01:34:42;;;;;;;;;;;;;;;19.69;41.93;102340.69;2084586;28;1613;-63
2024/01/31 01:36:09;;;;;;;;;;;;;;;19.69;41.94;102334.94;2083591;28;2215;-63
2024/01/31 01:37:36;;;;;;;;;;;;;;;19.68;41.99;102339.91;2085456;28;2243;-63
2024/01/31 01:39:03;;;;;;;;;;;;;;;19.68;41.82;102345.66;2083580;28;2346;-63
2024/01/31 01:40:30;;;;;;;;;;;;;;;19.67;41.82;102341.25;2085598;28;1679;-64
2024/01/31 01:41:57;;;;;;;;;;;;;;;19.67;41.83;102344.88;2083195;28;2297;-63
2024/01/31 01:43:24;;;;;;;;;;;;;;;19.67;41.79;102336.25;2084492;28;2148;-64
2024/01/31 01:44:51;;;;;;;;;;;;;;;19.67;41.94;102339.13;2085370;28;2166;-63
2024/01/31 01:46:20;;;;;;;;;;;;;;;19.67;41.88;102347.75;2084892;28;2222;-64
2024/01/31 01:47:50;;;;;;;;;;;;;;;19.65;41.76;102341.88;2085242;28;2227;-64
2024/01/31 01:49:17;;;;;;;;;;;;;;;19.67;41.77;102347.75;2085232;28;2317;-63
2024/01/31 01:50:45;;;;;;;;;;;;;;;19.66;41.86;102352.00;2083964;28;2211;-63
2024/01/31 01:52:12;;;;;;;;;;;;;;;19.66;41.84;102365.63;2085169;28;2234;-63
2024/01/31 01:53:38;;;;;;;;;;;;;;;19.65;41.76;102352.59;2084260;28;2147;-64
2024/01/31 01:55:06;;;;;;;;;;;;;;;19.64;41.87;102357.59;2084085;28;2273;-63
2024/01/31 01:56:33;;;;;;;;;;;;;;;19.63;41.79;102361.84;2084455;28;2190;-63
2024/01/31 01:58:00;;;;;;;;;;;;;;;19.63;41.70;102356.09;2085151;28;1641;-65
2024/01/31 01:59:27;;;;;;;;;;;;;;;19.63;41.83;102361.84;2082571;28;2266;-63
2024/01/31 02:00:55;;;;;;;;;;;;;;;19.64;41.79;102374.84;2083311;28;6302;-63
2024/01/31 02:02:22;;;;;;;;;;;;;;;19.63;41.87;102367.59;2085844;28;2334;-63
2024/01/31 02:03:53;;;;;;;;;;;;;;;19.62;41.74;102366.06;2084874;28;2211;-63
2024/01/31 02:05:20;;;;;;;;;;;;;;;19.62;41.75;102356.69;2083987;28;1581;-63
2024/01/31 02:06:48;;;;;;;;;;;;;;;19.62;41.73;102360.31;2085033;28;1624;-63
2024/01/31 02:08:14;;;;;;;;;;;;;;;19.61;41.77;102370.31;2084493;28;2262;-63
2024/01/31 02:09:42;;;;;;;;;;;;;;;19.61;41.77;102355.19;2085667;28;1569;-64
2024/01/31 02:11:08;;;;;;;;;;;;;;;19.62;41.87;102362.44;2085560;28;1561;-63
2024/01/31 02:12:35;;;;;;;;;;;;;;;19.62;41.84;102365.31;2085298;28;2141;-63
2024/01/31 02:14:02;;;;;;;;;;;;;;;19.61;41.79;102355.19;2085457;28;1676;-63
2024/01/31 02:15:29;;;;;;;;;;;;;;;19.60;41.87;102357.28;2085173;28;2105;-63
2024/01/31 02:16:57;;;;;;;;;;;;;;;19.61;41.89;102372.44;2085522;28;1593;-63
2024/01/31 02:18:25;;;;;;;;;;;;;;;19.61;41.83;102366.69;2084802;28;2318;-64
2024/01/31 02:19:52;;;;;;;;;;;;;;;19.61;41.73;102355.94;2085510;28;1573;-63
2024/01/31 02:21:19;;;;;;;;;;;;;;;19.60;41.76;102362.28;2085081;28;1601;-64
2024/01/31 02:22:47;;;;;;;;;;;;;;;19.57;41.72;102364.25;2083837;28;2284;-63
2024/01/31 02:24:14;;;;;;;;;;;;;;;19.58;41.76;102362.88;2084938;28;1609;-63
2024/01/31 02:25:41;;;;;;;;;;;;;;;19.59;41.73;102367.28;2081334;28;1652;-63
2024/01/31 02:27:08;;;;;;;;;;;;;;;19.60;41.84;102362.28;2083016;28;2215;-63
2024/01/31 02:28:35;;;;;;;;;;;;;;;19.58;41.78;102360.03;2082821;28;2227;-63
2024/01/31 02:30:01;;;;;;;;;;;;;;;19.59;41.84;102361.53;2081632;28;6348;-63
2024/01/31 02:31:28;;;;;;;;;;;;;;;19.58;41.73;102371.50;2084138;28;1707;-63
2024/01/31 02:32:56;;;;;;;;;;;;;;;19.58;41.78;102365.75;2082955;28;2255;-64
2024/01/31 02:34:25;;;;;;;;;;;;;;;19.58;41.80;102365.00;2084937;28;1561;-63
2024/01/31 02:35:52;;;;;;;;;;;;;;;19.57;41.71;102367.13;2083737;28;2159;-64
2024/01/31 02:37:19;;;;;;;;;;;;;;;19.57;41.73;102367.13;2082721;28;2261;-64
2024/01/31 02:38:46;;;;;;;;;;;;;;;19.58;41.67;102365.75;2080518;28;2189;-63
2024/01/31 02:40:14;;;;;;;;;;;;;;;19.57;41.79;102364.25;2083522;28;1688;-63
2024/01/31 02:41:41;;;;;;;;;;;;;;;19.57;41.79;102363.53;2084224;28;2164;-63
2024/01/31 02:43:08;;;;;;;;;;;;;;;19.57;41.70;102363.53;2083222;28;2537;-63
2024/01/31 02:44:35;;;;;;;;;;;;;;;19.56;41.76;102365.63;2084224;28;1637;-63
2024/01/31 02:46:02;;;;;;;;;;;;;;;19.56;41.66;102362.78;2082405;28;2199;-63
2024/01/31 02:47:29;;;;;;;;;;;;;;;19.57;41.71;102363.53;2083413;28;2209;-63
2024/01/31 02:48:59;;;;;;;;;;;;;;;19.56;41.66;102357.03;2085754;28;1832;-63
2024/01/31 02:50:27;;;;;;;;;;;;;;;19.54;41.72;102364.72;2084340;28;2220;-63
2024/01/31 02:51:53;;;;;;;;;;;;;;;19.54;41.77;102362.63;2085047;28;1593;-63
2024/01/31 02:53:20;;;;;;;;;;;;;;;19.54;41.62;102374.09;2084316;28;2137;-63
2024/01/31 02:54:51;;;;;;;;;;;;;;;19.54;41.64;102371.22;2082689;28;1625;-63
2024/01/31 02:56:17;;;;;;;;;;;;;;;19.54;41.76;102371.22;2084119;28;2223;-63
2024/01/31 02:57:44;;;;;;;;;;;;;;;19.55;41.68;102377.72;2083765;28;1621;-63
2024/01/31 02:59:11;;;;;;;;;;;;;;;19.53;41.71;102386.94;2084760;28;2155;-63
2024/01/31 03:00:39;;;;;;;;;;;;;;;19.53;41.72;102381.19;2082662;28;6283;-63
2024/01/31 03:02:05;;;;;;;;;;;;;;;19.53;41.64;102381.19;2083323;28;2197;-64
2024/01/31 03:03:32;;;;;;;;;;;;;;;19.53;41.79;102381.19;2083302;28;2207;-63
2024/01/31 03:04:59;;;;;;;;;;;;;;;19.53;41.67;102381.19;2083609;28;2131;-63
2024/01/31 03:06:26;;;;;;;;;;;;;;;19.52;41.66;102391.19;2084796;28;1610;-63
2024/01/31 03:07:53;;;;;;;;;;;;;;;19.52;41.75;102388.31;2084324;28;2142;-63
2024/01/31 03:09:21;;;;;;;;;;;;;;;19.53;41.71;102394.81;2083751;28;2159;-63
2024/01/31 03:10:48;;;;;;;;;;;;;;;19.52;41.74;102394.06;2084251;28;2218;-64
2024/01/31 03:12:15;;;;;;;;;;;;;;;19.51;41.62;102389.66;2084782;28;1618;-63
2024/01/31 03:13:42;;;;;;;;;;;;;;;19.51;41.74;102391.78;2085306;28;2202;-63
2024/01/31 03:15:11;;;;;;;;;;;;;;;19.50;41.76;102393.91;2083830;28;2275;-63
2024/01/31 03:16:39;;;;;;;;;;;;;;;19.50;41.77;102388.16;2084115;28;2151;-64
2024/01/31 03:18:07;;;;;;;;;;;;;;;19.49;41.67;102392.38;2084353;28;2309;-63
2024/01/31 03:19:35;;;;;;;;;;;;;;;19.49;41.71;102392.38;2083646;28;2257;-63
2024/01/31 03:21:02;;;;;;;;;;;;;;;19.49;41.69;102392.38;2085508;28;2195;-63
2024/01/31 03:22:30;;;;;;;;;;;;;;;19.49;41.67;102403.13;2086026;28;2250;-64
2024/01/31 03:23:56;;;;;;;;;;;;;;;19.49;41.78;102398.13;2084129;28;1741;-63
2024/01/31 03:25:23;;;;;;;;;;;;;;;19.48;41.71;102402.38;2082671;28;2230;-63
2024/01/31 03:26:50;;;;;;;;;;;;;;;19.48;41.67;102405.25;2084177;28;2218;-63
2024/01/31 03:28:17;;;;;;;;;;;;;;;19.48;41.69;102405.25;2083949;28;2335;-63
2024/01/31 03:29:44;;;;;;;;;;;;;;;19.48;41.75;102402.38;2085359;28;1691;-63
2024/01/31 03:31:11;;;;;;;;;;;;;;;19.48;41.79;102408.13;2083190;28;6236;-63
2024/01/31 03:32:38;;;;;;;;;;;;;;;19.49;41.89;102414.63;2084678;28;2187;-63
2024/01/31 03:34:05;;;;;;;;;;;;;;;19.48;41.81;102407.38;2082493;28;2388;-63
2024/01/31 03:35:32;;;;;;;;;;;;;;;19.48;41.76;102413.88;2082166;28;2179;-63
2024/01/31 03:37:02;;;;;;;;;;;;;;;19.46;41.70;102411.59;2083013;28;2183;-64
2024/01/31 03:38:29;;;;;;;;;;;;;;;19.46;41.81;102419.47;2085787;28;2269;-63
2024/01/31 03:39:56;;;;;;;;;;;;;;;19.47;41.76;102418.13;2082846;28;2189;-63
2024/01/31 03:41:23;;;;;;;;;;;;;;;19.47;41.88;102435.38;2082408;28;2254;-63
2024/01/31 03:42:50;;;;;;;;;;;;;;;19.47;41.86;102426.75;2085486;28;2202;-63
2024/01/31 03:44:17;;;;;;;;;;;;;;;19.44;41.76;102422.94;2083691;28;2225;-63
2024/01/31 03:45:44;;;;;;;;;;;;;;;19.46;41.86;102423.09;2082514;28;2152;-63
2024/01/31 03:47:11;;;;;;;;;;;;;;;19.48;41.84;102422.50;2080395;28;2312;-63
2024/01/31 03:48:38;;;;;;;;;;;;;;;19.47;41.74;102418.13;2083055;28;2225;-63
2024/01/31 03:50:05;;;;;;;;;;;;;;;19.50;41.70;102424.78;2082727;28;2243;-63
2024/01/31 03:51:32;;;;;;;;;;;;;;;19.49;41.68;102426.13;2081604;28;2186;-63
2024/01/31 03:52:59;;;;;;;;;;;;;;;19.51;41.72;102424.16;2085059;28;1624;-64
2024/01/31 03:54:26;;;;;;;;;;;;;;;19.52;41.72;102431.44;2085093;28;1589;-63
2024/01/31 03:55:53;;;;;;;;;;;;;;;19.54;41.60;102427.94;2083818;28;2080;-63
2024/01/31 03:57:20;;;;;;;;;;;;;;;19.55;41.63;102430.22;2084020;28;2139;-63
2024/01/31 03:58:47;;;;;;;;;;;;;;;19.55;41.44;102441.69;2084657;28;1582;-63
2024/01/31 04:00:14;;;;;;;;;;;;;;;19.55;41.41;102430.22;2083354;28;6287;-63
2024/01/31 04:01:41;;;;;;;;;;;;;;;19.54;41.48;102433.66;2084866;28;1648;-63
2024/01/31 04:03:08;;;;;;;;;;;;;;;19.57;41.51;102433.22;2083532;28;2243;-63
2024/01/31 04:04:35;;;;;;;;;;;;;;;19.56;41.46;102431.72;2082497;28;2282;-63
2024/01/31 04:06:02;;;;;;;;;;;;;;;19.58;41.49;102431.84;2085305;28;1645;-63
2024/01/31 04:07:29;;;;;;;;;;;;;;;19.57;41.37;102436.09;2082828;28;2336;-63
2024/01/31 04:08:56;;;;;;;;;;;;;;;19.59;41.51;102435.50;2083177;28;2209;-63
2024/01/31 04:10:23;;;;;;;;;;;;;;;19.59;41.40;102436.25;2083694;28;2423;-63
2024/01/31 04:11:50;;;;;;;;;;;;;;;19.56;41.42;102446.09;2083263;28;2225;-63
2024/01/31 04:13:17;;;;;;;;;;;;;;;19.53;41.56;102444.41;2083769;28;2399;-63
2024/01/31 04:14:45;;;;;;;;;;;;;;;19.54;41.64;102451.69;2082766;28;2331;-63
2024/01/31 04:16:15;;;;;;;;;;;;;;;19.54;41.62;102451.69;2083252;28;2499;-63
2024/01/31 04:17:42;;;;;;;;;;;;;;;19.54;41.64;102457.44;2082781;28;2302;-63
2024/01/31 04:19:09;;;;;;;;;;;;;;;19.54;41.62;102451.69;2082653;28;2242;-63
2024/01/31 04:20:39;;;;;;;;;;;;;;;19.54;41.62;102457.44;2083086;28;2420;-63
2024/01/31 04:22:06;;;;;;;;;;;;;;;19.54;41.63;102451.69;2085241;28;2398;-63
2024/01/31 04:23:33;;;;;;;;;;;;;;;19.54;41.74;102457.44;2084633;28;2285;-63
2024/01/31 04:25:00;;;;;;;;;;;;;;;19.58;41.57;102457.72;2082866;28;2264;-63
2024/01/31 04:26:27;;;;;;;;;;;;;;;19.60;41.65;102460.00;2084078;28;2280;-63
2024/01/31 04:27:54;;;;;;;;;;;;;;;19.62;41.64;102452.28;2084263;28;2265;-63
2024/01/31 04:29:21;;;;;;;;;;;;;;;19.63;41.61;102458.78;2081871;28;2331;-63
2024/01/31 04:30:48;;;;;;;;;;;;;;;19.63;41.65;102456.69;2082399;28;6137;-63
2024/01/31 04:32:15;;;;;;;;;;;;;;;19.63;41.57;102459.56;2082929;28;2324;-63
2024/01/31 04:33:42;;;;;;;;;;;;;;;19.64;41.61;102449.56;2084813;28;2222;-63
2024/01/31 04:35:09;;;;;;;;;;;;;;;19.64;41.65;102461.06;2084510;28;2390;-63
2024/01/31 04:36:36;;;;;;;;;;;;;;;19.64;41.75;102454.56;2084481;28;2266;-64
2024/01/31 04:38:03;;;;;;;;;;;;;;;19.64;41.63;102461.06;2084218;28;2234;-63
2024/01/31 04:39:30;;;;;;;;;;;;;;;19.64;41.56;102452.44;2084101;28;2258;-63
2024/01/31 04:40:57;;;;;;;;;;;;;;;19.65;41.62;102453.19;2084850;28;2405;-63
2024/01/31 04:42:24;;;;;;;;;;;;;;;19.64;41.70;102468.94;2084234;28;2398;-63
2024/01/31 04:43:53;;;;;;;;;;;;;;;19.63;41.75;102468.19;2081618;28;2250;-63
2024/01/31 04:45:20;;;;;;;;;;;;;;;19.63;41.79;102473.16;2083217;28;2278;-63
2024/01/31 04:46:47;;;;;;;;;;;;;;;19.61;41.75;102468.03;2084385;28;2332;-63
2024/01/31 04:48:14;;;;;;;;;;;;;;;19.62;41.73;102481.03;2085264;28;2271;-63
2024/01/31 04:49:41;;;;;;;;;;;;;;;19.63;41.79;102471.06;2081390;28;2287;-63
2024/01/31 04:51:08;;;;;;;;;;;;;;;19.63;41.79;102468.19;2085175;28;2301;-63
2024/01/31 04:52:35;;;;;;;;;;;;;;;19.62;41.75;102468.78;2083664;28;2419;-63
2024/01/31 04:54:02;;;;;;;;;;;;;;;19.63;41.85;102471.06;2084376;28;2264;-63
2024/01/31 04:55:29;;;;;;;;;;;;;;;19.63;41.81;102473.94;2084647;28;2429;-63
2024/01/31 04:56:56;;;;;;;;;;;;;;;19.63;41.78;102476.81;2084921;28;2240;-63
2024/01/31 04:58:23;;;;;;;;;;;;;;;19.64;41.77;102478.31;2085436;28;2310;-64
2024/01/31 04:59:50;;;;;;;;;;;;;;;19.65;41.75;102471.22;2084167;28;2272;-63
2024/01/31 05:01:19;;;;;;;;;;;;;;;19.65;41.87;102479.84;2084109;28;6158;-63
2024/01/31 05:02:46;;;;;;;;;;;;;;;19.66;41.81;102469.84;2083941;28;2367;-63
2024/01/31 05:04:13;;;;;;;;;;;;;;;19.66;41.83;102481.34;2084259;28;2249;-63
2024/01/31 05:05:40;;;;;;;;;;;;;;;19.68;41.85;102477.88;2083587;28;2761;-63
2024/01/31 05:07:07;;;;;;;;;;;;;;;19.68;41.85;102480.75;2081768;28;2270;-63
2024/01/31 05:08:34;;;;;;;;;;;;;;;19.69;41.85;102478.66;2082051;28;2249;-63
2024/01/31 05:10:01;;;;;;;;;;;;;;;19.69;41.93;102487.25;2083016;28;2301;-63
2024/01/31 05:11:28;;;;;;;;;;;;;;;19.68;42.00;102483.63;2082298;28;2393;-63
2024/01/31 05:12:54;;;;;;;;;;;;;;;19.67;41.82;102488.59;2084063;28;2413;-63
2024/01/31 05:14:20;;;;;;;;;;;;;;;19.69;41.94;102490.88;2082150;28;2246;-63
2024/01/31 05:15:47;;;;;;;;;;;;;;;19.70;41.96;102485.88;2084382;28;2272;-64
2024/01/31 05:17:15;;;;;;;;;;;;;;;19.67;42.21;102482.84;2083210;28;2421;-64
2024/01/31 05:18:42;;;;;;;;;;;;;;;19.75;42.16;102490.59;2084037;28;2444;-63
2024/01/31 05:20:09;;;;;;;;;;;;;;;19.75;42.23;102484.84;2083547;28;2302;-63
2024/01/31 05:21:36;;;;;;;;;;;;;;;19.73;42.28;102487.56;2084887;28;2316;-63
2024/01/31 05:23:03;;;;;;;;;;;;;;;19.72;42.18;102494.66;2084418;28;2238;-64
2024/01/31 05:24:30;;;;;;;;;;;;;;;19.72;42.24;102500.41;2084625;28;2271;-64
2024/01/31 05:25:57;;;;;;;;;;;;;;;19.71;42.08;102481.69;2082337;28;2327;-63
2024/01/31 05:27:24;;;;;;;;;;;;;;;19.66;42.23;102487.09;2085050;28;2195;-64
2024/01/31 05:28:51;;;;;;;;;;;;;;;19.66;42.37;102489.22;2082487;28;2694;-64
2024/01/31 05:30:17;;;;;;;;;;;;;;;19.66;42.30;102492.06;2084390;28;7040;-63
2024/01/31 05:31:44;;;;;;;;;;;;;;;19.66;42.33;102495.69;2086816;28;2194;-63
2024/01/31 05:33:12;;;;;;;;;;;;;;;19.72;42.71;102494.66;2087519;28;1660;-65
2024/01/31 05:34:42;;;;;;;;;;;;;;;19.78;42.66;102503.75;2085606;28;1988;-64
2024/01/31 05:36:09;;;;;;;;;;;;;;;19.78;42.50;102486.50;2084635;28;1652;-65
2024/01/31 05:37:36;;;;;;;;;;;;;;;19.73;42.59;102507.69;2083233;28;2165;-64
2024/01/31 05:39:06;;;;;;;;;;;;;;;19.68;42.52;102506.59;2086390;28;1566;-66
2024/01/31 05:40:33;;;;;;;;;;;;;;;19.67;42.50;102505.81;2085781;28;2167;-66
2024/01/31 05:42:00;;;;;;;;;;;;;;;19.66;42.47;102515.81;2086775;28;1597;-66
2024/01/31 05:43:27;;;;;;;;;;;;;;;19.67;42.57;102517.31;2085143;28;2606;-67
2024/01/31 05:44:54;;;;;;;;;;;;;;;19.70;42.58;102514.63;2086645;28;2582;-65
2024/01/31 05:46:21;;;;;;;;;;;;;;;19.77;42.81;102519.47;2086651;28;1609;-67
2024/01/31 05:47:48;;;;;;;;;;;;;;;19.77;42.56;102525.22;2087863;28;2082;-68
2024/01/31 05:49:15;;;;;;;;;;;;;;;19.27;42.36;102525.75;2084377;28;1657;-67
2024/01/31 05:50:42;;;;;;;;;;;;;;;18.70;42.00;102513.41;2085896;28;2685;-63
2024/01/31 05:52:09;;;;;;;;;;;;;;;18.79;42.25;102519.19;2084569;28;2210;-64
2024/01/31 05:53:36;;;;;;;;;;;;;;;19.01;41.65;102517.34;2082651;28;2158;-64
2024/01/31 05:55:03;;;;;;;;;;;;;;;19.19;41.54;102522.97;2085386;28;1724;-63
2024/01/31 05:56:30;;;;;;;;;;;;;;;19.36;42.05;102533.63;2087088;28;1634;-63
2024/01/31 05:57:57;;;;;;;;;;;;;;;19.48;41.69;102530.94;2085421;28;1669;-63
2024/01/31 05:59:25;;;;;;;;;;;;;;;19.54;41.69;102535.03;2083670;28;2342;-63
2024/01/31 06:00:52;;;;;;;;;;;;;;;19.59;41.76;102533.97;2083997;28;7373;-63
2024/01/31 06:02:19;;;;;;;;;;;;;;;19.61;41.74;102537.00;2086383;28;2234;-63
2024/01/31 06:03:46;;;;;;;;;;;;;;;19.64;41.87;102544.41;2087815;28;1902;-63
2024/01/31 06:05:13;;;;;;;;;;;;;;;19.65;41.72;102548.81;2087090;28;1656;-64
2024/01/31 06:06:40;;;;;;;;;;;;;;;19.66;41.82;102550.31;2085532;28;1665;-63
2024/01/31 06:08:06;;;;;;;;;;;;;;;19.67;41.85;102557.56;2085033;28;1739;-63
2024/01/31 06:09:34;;;;;;;;;;;;;;;19.68;41.86;102552.59;2087108;28;1620;-63
2024/01/31 06:11:04;;;;;;;;;;;;;;;19.69;41.71;102559.13;2085816;28;1601;-63
2024/01/31 06:12:31;;;;;;;;;;;;;;;19.70;41.70;102560.63;2083967;28;1715;-63
2024/01/31 06:13:58;;;;;;;;;;;;;;;19.69;41.83;102553.38;2086162;28;1662;-63
2024/01/31 06:15:25;;;;;;;;;;;;;;;19.70;41.76;102563.50;2084396;28;1739;-63
2024/01/31 06:16:52;;;;;;;;;;;;;;;19.70;41.77;102558.53;2083923;28;1714;-63
2024/01/31 06:18:19;;;;;;;;;;;;;;;19.70;41.88;102560.63;2086271;28;2178;-63
2024/01/31 06:19:47;;;;;;;;;;;;;;;19.69;41.99;102559.13;2085586;28;2260;-63
2024/01/31 06:21:14;;;;;;;;;;;;;;;19.70;42.01;102564.28;2085588;28;1700;-63
2024/01/31 06:22:41;;;;;;;;;;;;;;;19.71;41.97;102559.28;2086316;28;1631;-63
2024/01/31 06:24:08;;;;;;;;;;;;;;;19.71;41.86;102567.91;2086722;28;1959;-63
2024/01/31 06:25:38;;;;;;;;;;;;;;;19.72;41.85;102569.41;2086047;28;1624;-63
2024/01/31 06:27:05;;;;;;;;;;;;;;;19.72;42.17;102566.53;2083071;28;2325;-63
2024/01/31 06:28:38;;;;;;;;;;;;;;;19.74;42.02;102566.69;2084660;28;2373;-64
2024/01/31 06:30:05;;;;;;;;;;;;;;;19.72;42.20;102575.16;2085643;28;6588;-63
2024/01/31 06:31:35;;;;;;;;;;;;;;;19.74;42.12;102578.19;2083150;28;2398;-63
2024/01/31 06:33:08;;;;;;;;;;;;;;;19.74;41.99;102572.44;2082627;28;2280;-63
2024/01/31 06:34:35;;;;;;;;;;;;;;;19.74;42.08;102583.94;2083706;28;2237;-63
2024/01/31 06:36:02;;;;;;;;;;;;;;;19.75;42.04;102579.72;2084059;28;2269;-64
2024/01/31 06:37:29;;;;;;;;;;;;;;;19.74;42.13;102569.56;2083740;28;2378;-63
2024/01/31 06:38:58;;;;;;;;;;;;;;;19.75;42.06;102573.97;2085296;28;2257;-63
2024/01/31 06:40:24;;;;;;;;;;;;;;;19.74;42.02;102578.94;2085438;28;2391;-64
2024/01/31 06:41:51;;;;;;;;;;;;;;;19.74;41.97;102590.44;2083990;28;2225;-63
2024/01/31 06:43:19;;;;;;;;;;;;;;;19.74;42.06;102590.44;2082575;28;2396;-64
2024/01/31 06:44:46;;;;;;;;;;;;;;;19.74;42.14;102596.19;2083638;28;2302;-63
2024/01/31 06:46:15;;;;;;;;;;;;;;;19.75;42.08;102585.47;2081090;28;2636;-64
2024/01/31 06:47:42;;;;;;;;;;;;;;;19.74;42.09;102584.69;2081244;28;2570;-63
2024/01/31 06:49:09;;;;;;;;;;;;;;;19.67;42.32;102594.94;2083359;28;2619;-64
2024/01/31 06:50:36;;;;;;;;;;;;;;;19.73;42.31;102599.69;2079425;28;2280;-64
2024/01/31 06:52:03;;;;;;;;;;;;;;;19.78;42.40;102598.63;2082151;28;2533;-64
2024/01/31 06:53:31;;;;;;;;;;;;;;;19.78;42.32;102595.75;2079544;28;2601;-64
2024/01/31 06:54:57;;;;;;;;;;;;;;;19.76;42.35;102601.34;2082605;28;2257;-64
2024/01/31 06:56:24;;;;;;;;;;;;;;;19.77;42.32;102599.97;2085177;28;2639;-63
2024/01/31 06:57:51;;;;;;;;;;;;;;;19.73;42.39;102594.69;2084822;28;2544;-68
2024/01/31 06:59:18;;;;;;;;;;;;;;;19.82;42.31;102602.56;2079780;28;4448;-66
2024/01/31 07:00:45;;;;;;;;;;;;;;;19.84;42.22;102601.97;2080194;28;6022;-68
2024/01/31 07:02:12;;;;;;;;;;;;;;;19.82;42.12;102607.56;2081431;28;2782;-70
2024/01/31 07:03:39;;;;;;;;;;;;;;;19.90;42.73;102596.66;2077310;28;2640;-72
2024/01/31 07:05:06;;;;;;;;;;;;;;;19.98;42.86;102597.28;2077334;28;4083;-68
2024/01/31 07:06:33;;;;;;;;;;;;;;;19.93;42.49;102606.19;2078444;28;2705;-68
2024/01/31 07:08:00;;;;;;;;;;;;;;;19.90;42.28;102598.78;2080570;28;4368;-68
2024/01/31 07:09:29;;;;;;;;;;;;;;;19.86;42.21;102607.88;2081211;28;2724;-68
2024/01/31 07:10:56;;;;;;;;;;;;;;;19.85;42.14;102609.22;2077316;28;4363;-68
2024/01/31 07:12:23;;;;;;;;;;;;;;;19.84;42.12;102610.59;2079453;28;2721;-68
2024/01/31 07:13:50;;;;;;;;;;;;;;;19.84;42.04;102616.34;2078189;28;2854;-68
2024/01/31 07:15:17;;;;;;;;;;;;;;;19.82;42.23;102616.94;2078215;28;3218;-70
2024/01/31 07:16:45;;;;;;;;;;;;;;;19.82;42.19;102601.81;2080141;28;2414;-71
2024/01/31 07:18:12;;;;;;;;;;;;;;;19.82;42.17;102616.19;2082027;28;2774;-68
2024/01/31 07:19:42;;;;;;;;;;;;;;;19.82;42.17;102621.94;2079787;28;2436;-68
2024/01/31 07:21:09;;;;;;;;;;;;;;;19.83;42.02;102629.19;2081202;28;2561;-68
2024/01/31 07:22:40;;;;;;;;;;;;;;;19.84;41.97;102633.59;2078216;28;4339;-69
2024/01/31 07:24:07;;;;;;;;;;;;;;;19.85;42.18;102635.84;2081744;28;2369;-68
2024/01/31 07:25:50;;;;;;;;;;;;;;;19.87;42.20;102638.13;2079970;28;2866;-68
2024/01/31 07:27:17;;;;;;;;;;;;;;;19.86;42.16;102645.25;2081657;28;4282;-68
2024/01/31 07:28:44;;;;;;;;;;;;;;;19.88;42.12;102645.38;2078938;28;2771;-68
2024/01/31 07:30:11;;;;;;;;;;;;;;;19.88;42.31;102651.13;2083797;28;6325;-68
2024/01/31 07:31:38;;;;;;;;;;;;;;;19.90;42.16;102647.66;2078851;28;4074;-68
2024/01/31 07:33:05;;;;;;;;;;;;;;;19.90;42.43;102648.41;2080203;28;2771;-68
2024/01/31 07:34:32;;;;;;;;;;;;;;;19.91;42.35;102646.31;2081763;28;2811;-68